sensor_id;sensor_type;location;lat;lon;timestamp;P1;durP1;ratioP1;P2;durP2;ratioP2
46230;SDS011;31949;51.404;-0.038;2023-05-07T00:00:15;10.63;;;4.88;;
46230;SDS011;31949;51.404;-0.038;2023-05-07T00:02:45;5.03;;;3.78;;
46230;SDS011;31949;51.404;-0.038;2023-05-07T00:05:13;4.75;;;4.00;;
46230;SDS011;31949;51.404;-0.038;2023-05-07T00:07:41;5.57;;;4.32;;
46230;SDS011;31949;51.404;-0.038;2023-05-07T00:10:09;5.45;;;4.35;;
46230;SDS011;31949;51.404;-0.038;2023-05-07T00:12:39;7.47;;;4.82;;
46230;SDS011;31949;51.404;-0.038;2023-05-07T00:15:07;6.20;;;4.63;;
46230;SDS011;31949;51.404;-0.038;2023-05-07T00:17:35;7.63;;;5.25;;
46230;SDS011;31949;51.404;-0.038;2023-05-07T00:20:03;5.90;;;5.15;;
46230;SDS011;31949;51.404;-0.038;2023-05-07T00:22:32;6.75;;;4.43;;
46230;SDS011;31949;51.404;-0.038;2023-05-07T00:24:59;6.57;;;4.47;;
46230;SDS011;31949;51.404;-0.038;2023-05-07T00:27:27;4.97;;;3.22;;
46230;SDS011;31949;51.404;-0.038;2023-05-07T00:29:54;3.38;;;2.65;;
46230;SDS011;31949;51.404;-0.038;2023-05-07T00:32:21;3.70;;;2.35;;
46230;SDS011;31949;51.404;-0.038;2023-05-07T00:34:48;2.75;;;2.53;;
46230;SDS011;31949;51.404;-0.038;2023-05-07T00:37:17;3.78;;;3.00;;
46230;SDS011;31949;51.404;-0.038;2023-05-07T00:39:44;2.90;;;2.58;;
46230;SDS011;31949;51.404;-0.038;2023-05-07T00:42:12;4.85;;;2.90;;
46230;SDS011;31949;51.404;-0.038;2023-05-07T00:44:39;4.22;;;3.22;;
46230;SDS011;31949;51.404;-0.038;2023-05-07T00:47:06;3.75;;;2.88;;
46230;SDS011;31949;51.404;-0.038;2023-05-07T00:49:43;3.25;;;2.55;;
46230;SDS011;31949;51.404;-0.038;2023-05-07T00:52:16;4.22;;;2.60;;
46230;SDS011;31949;51.404;-0.038;2023-05-07T00:54:43;4.15;;;2.58;;
46230;SDS011;31949;51.404;-0.038;2023-05-07T00:57:11;3.55;;;3.10;;
46230;SDS011;31949;51.404;-0.038;2023-05-07T00:59:40;3.47;;;3.15;;
46230;SDS011;31949;51.404;-0.038;2023-05-07T01:02:08;4.78;;;3.45;;
46230;SDS011;31949;51.404;-0.038;2023-05-07T01:04:36;3.95;;;3.28;;
46230;SDS011;31949;51.404;-0.038;2023-05-07T01:07:04;3.67;;;3.00;;
46230;SDS011;31949;51.404;-0.038;2023-05-07T01:09:32;4.35;;;2.70;;
46230;SDS011;31949;51.404;-0.038;2023-05-07T01:12:01;4.38;;;3.70;;
46230;SDS011;31949;51.404;-0.038;2023-05-07T01:14:30;3.95;;;3.38;;
46230;SDS011;31949;51.404;-0.038;2023-05-07T01:16:59;3.85;;;2.90;;
46230;SDS011;31949;51.404;-0.038;2023-05-07T01:19:28;4.60;;;3.08;;
46230;SDS011;31949;51.404;-0.038;2023-05-07T01:22:00;3.03;;;2.35;;
46230;SDS011;31949;51.404;-0.038;2023-05-07T01:24:36;3.28;;;2.97;;
46230;SDS011;31949;51.404;-0.038;2023-05-07T01:27:06;3.90;;;3.00;;
46230;SDS011;31949;51.404;-0.038;2023-05-07T01:29:34;2.58;;;2.28;;
46230;SDS011;31949;51.404;-0.038;2023-05-07T01:32:01;2.95;;;2.72;;
46230;SDS011;31949;51.404;-0.038;2023-05-07T01:34:30;3.33;;;2.70;;
46230;SDS011;31949;51.404;-0.038;2023-05-07T01:37:00;3.47;;;2.85;;
46230;SDS011;31949;51.404;-0.038;2023-05-07T01:39:29;3.92;;;3.63;;
46230;SDS011;31949;51.404;-0.038;2023-05-07T01:41:57;4.00;;;3.40;;
46230;SDS011;31949;51.404;-0.038;2023-05-07T01:44:26;3.53;;;3.22;;
46230;SDS011;31949;51.404;-0.038;2023-05-07T01:46:54;5.25;;;3.58;;
46230;SDS011;31949;51.404;-0.038;2023-05-07T01:49:21;3.85;;;3.45;;
46230;SDS011;31949;51.404;-0.038;2023-05-07T01:51:49;4.35;;;3.60;;
46230;SDS011;31949;51.404;-0.038;2023-05-07T01:54:16;3.70;;;3.40;;
46230;SDS011;31949;51.404;-0.038;2023-05-07T01:56:45;3.63;;;3.33;;
46230;SDS011;31949;51.404;-0.038;2023-05-07T01:59:14;3.72;;;3.33;;
46230;SDS011;31949;51.404;-0.038;2023-05-07T02:01:41;3.15;;;2.80;;
46230;SDS011;31949;51.404;-0.038;2023-05-07T02:04:10;2.75;;;2.55;;
46230;SDS011;31949;51.404;-0.038;2023-05-07T02:06:38;3.60;;;3.13;;
46230;SDS011;31949;51.404;-0.038;2023-05-07T02:09:06;2.75;;;2.40;;
46230;SDS011;31949;51.404;-0.038;2023-05-07T02:11:36;5.18;;;3.70;;
46230;SDS011;31949;51.404;-0.038;2023-05-07T02:14:04;4.80;;;4.40;;
46230;SDS011;31949;51.404;-0.038;2023-05-07T02:16:32;4.57;;;4.18;;
46230;SDS011;31949;51.404;-0.038;2023-05-07T02:18:59;4.70;;;4.00;;
46230;SDS011;31949;51.404;-0.038;2023-05-07T02:21:27;5.85;;;4.00;;
46230;SDS011;31949;51.404;-0.038;2023-05-07T02:23:56;5.18;;;4.07;;
46230;SDS011;31949;51.404;-0.038;2023-05-07T02:26:23;6.00;;;4.28;;
46230;SDS011;31949;51.404;-0.038;2023-05-07T02:28:52;5.32;;;3.55;;
46230;SDS011;31949;51.404;-0.038;2023-05-07T02:31:20;3.92;;;3.45;;
46230;SDS011;31949;51.404;-0.038;2023-05-07T02:33:47;5.22;;;4.70;;
46230;SDS011;31949;51.404;-0.038;2023-05-07T02:36:15;4.45;;;4.05;;
46230;SDS011;31949;51.404;-0.038;2023-05-07T02:39:02;4.90;;;4.40;;
46230;SDS011;31949;51.404;-0.038;2023-05-07T02:41:30;7.72;;;6.35;;
46230;SDS011;31949;51.404;-0.038;2023-05-07T02:43:57;7.72;;;6.18;;
46230;SDS011;31949;51.404;-0.038;2023-05-07T02:46:24;6.07;;;5.22;;
46230;SDS011;31949;51.404;-0.038;2023-05-07T02:48:59;6.88;;;6.18;;
46230;SDS011;31949;51.404;-0.038;2023-05-07T02:51:26;5.72;;;5.13;;
46230;SDS011;31949;51.404;-0.038;2023-05-07T02:53:56;7.78;;;5.47;;
46230;SDS011;31949;51.404;-0.038;2023-05-07T02:56:25;6.63;;;5.88;;
46230;SDS011;31949;51.404;-0.038;2023-05-07T02:58:53;6.53;;;4.70;;
46230;SDS011;31949;51.404;-0.038;2023-05-07T03:01:23;6.07;;;4.97;;
46230;SDS011;31949;51.404;-0.038;2023-05-07T03:04:02;5.80;;;4.68;;
46230;SDS011;31949;51.404;-0.038;2023-05-07T03:06:30;4.95;;;3.83;;
46230;SDS011;31949;51.404;-0.038;2023-05-07T03:08:57;5.47;;;4.35;;
46230;SDS011;31949;51.404;-0.038;2023-05-07T03:11:24;4.55;;;4.00;;
46230;SDS011;31949;51.404;-0.038;2023-05-07T03:13:52;6.80;;;5.05;;
46230;SDS011;31949;51.404;-0.038;2023-05-07T03:16:20;4.68;;;4.20;;
46230;SDS011;31949;51.404;-0.038;2023-05-07T03:18:47;6.60;;;5.10;;
46230;SDS011;31949;51.404;-0.038;2023-05-07T03:21:15;4.80;;;4.28;;
46230;SDS011;31949;51.404;-0.038;2023-05-07T03:23:42;6.85;;;5.18;;
46230;SDS011;31949;51.404;-0.038;2023-05-07T03:26:09;8.32;;;5.55;;
46230;SDS011;31949;51.404;-0.038;2023-05-07T03:28:37;5.30;;;4.80;;
46230;SDS011;31949;51.404;-0.038;2023-05-07T03:31:08;5.50;;;4.90;;
46230;SDS011;31949;51.404;-0.038;2023-05-07T03:33:38;4.75;;;4.20;;
46230;SDS011;31949;51.404;-0.038;2023-05-07T03:36:18;5.85;;;5.00;;
46230;SDS011;31949;51.404;-0.038;2023-05-07T03:38:45;5.15;;;4.40;;
46230;SDS011;31949;51.404;-0.038;2023-05-07T03:41:16;5.97;;;4.57;;
46230;SDS011;31949;51.404;-0.038;2023-05-07T03:43:45;8.65;;;5.80;;
46230;SDS011;31949;51.404;-0.038;2023-05-07T03:46:12;6.10;;;4.88;;
46230;SDS011;31949;51.404;-0.038;2023-05-07T03:48:40;6.32;;;5.65;;
46230;SDS011;31949;51.404;-0.038;2023-05-07T03:51:08;6.15;;;4.93;;
46230;SDS011;31949;51.404;-0.038;2023-05-07T03:53:35;7.18;;;6.10;;
46230;SDS011;31949;51.404;-0.038;2023-05-07T03:56:03;8.63;;;6.38;;
46230;SDS011;31949;51.404;-0.038;2023-05-07T03:58:34;6.15;;;5.55;;
46230;SDS011;31949;51.404;-0.038;2023-05-07T04:01:06;6.18;;;5.18;;
46230;SDS011;31949;51.404;-0.038;2023-05-07T04:03:34;8.85;;;5.90;;
46230;SDS011;31949;51.404;-0.038;2023-05-07T04:06:02;6.65;;;5.95;;
46230;SDS011;31949;51.404;-0.038;2023-05-07T04:08:31;9.35;;;7.03;;
46230;SDS011;31949;51.404;-0.038;2023-05-07T04:10:59;6.72;;;5.60;;
46230;SDS011;31949;51.404;-0.038;2023-05-07T04:13:29;7.15;;;5.28;;
46230;SDS011;31949;51.404;-0.038;2023-05-07T04:16:00;6.82;;;5.93;;
46230;SDS011;31949;51.404;-0.038;2023-05-07T04:18:28;4.63;;;4.13;;
46230;SDS011;31949;51.404;-0.038;2023-05-07T04:20:56;6.60;;;4.80;;
46230;SDS011;31949;51.404;-0.038;2023-05-07T04:23:23;4.60;;;3.92;;
46230;SDS011;31949;51.404;-0.038;2023-05-07T04:25:51;7.05;;;4.68;;
46230;SDS011;31949;51.404;-0.038;2023-05-07T04:28:24;6.83;;;5.63;;
46230;SDS011;31949;51.404;-0.038;2023-05-07T04:30:52;6.47;;;5.40;;
46230;SDS011;31949;51.404;-0.038;2023-05-07T04:33:20;5.18;;;4.68;;
46230;SDS011;31949;51.404;-0.038;2023-05-07T04:35:49;5.57;;;5.00;;
46230;SDS011;31949;51.404;-0.038;2023-05-07T04:38:16;7.00;;;4.88;;
46230;SDS011;31949;51.404;-0.038;2023-05-07T04:40:46;6.43;;;4.65;;
46230;SDS011;31949;51.404;-0.038;2023-05-07T04:43:18;5.38;;;4.88;;
46230;SDS011;31949;51.404;-0.038;2023-05-07T04:45:51;7.47;;;5.50;;
46230;SDS011;31949;51.404;-0.038;2023-05-07T04:48:21;6.43;;;5.28;;
46230;SDS011;31949;51.404;-0.038;2023-05-07T04:50:50;7.63;;;6.22;;
46230;SDS011;31949;51.404;-0.038;2023-05-07T04:53:19;11.05;;;6.32;;
46230;SDS011;31949;51.404;-0.038;2023-05-07T04:55:47;7.15;;;6.30;;
46230;SDS011;31949;51.404;-0.038;2023-05-07T04:58:15;8.90;;;6.82;;
46230;SDS011;31949;51.404;-0.038;2023-05-07T05:00:45;6.75;;;6.05;;
46230;SDS011;31949;51.404;-0.038;2023-05-07T05:03:13;7.70;;;6.57;;
46230;SDS011;31949;51.404;-0.038;2023-05-07T05:05:40;8.48;;;6.10;;
46230;SDS011;31949;51.404;-0.038;2023-05-07T05:08:08;8.32;;;6.50;;
46230;SDS011;31949;51.404;-0.038;2023-05-07T05:10:38;9.10;;;7.82;;
46230;SDS011;31949;51.404;-0.038;2023-05-07T05:13:06;8.07;;;6.32;;
46230;SDS011;31949;51.404;-0.038;2023-05-07T05:15:34;12.90;;;9.18;;
46230;SDS011;31949;51.404;-0.038;2023-05-07T05:18:02;9.35;;;7.43;;
46230;SDS011;31949;51.404;-0.038;2023-05-07T05:20:29;8.07;;;6.68;;
46230;SDS011;31949;51.404;-0.038;2023-05-07T05:22:57;11.00;;;8.57;;
46230;SDS011;31949;51.404;-0.038;2023-05-07T05:25:24;11.70;;;8.55;;
46230;SDS011;31949;51.404;-0.038;2023-05-07T05:27:52;9.10;;;7.07;;
46230;SDS011;31949;51.404;-0.038;2023-05-07T05:30:19;8.35;;;6.72;;
46230;SDS011;31949;51.404;-0.038;2023-05-07T05:32:48;9.98;;;8.13;;
46230;SDS011;31949;51.404;-0.038;2023-05-07T05:35:16;10.48;;;8.02;;
46230;SDS011;31949;51.404;-0.038;2023-05-07T05:37:43;12.75;;;9.70;;
46230;SDS011;31949;51.404;-0.038;2023-05-07T05:40:11;10.07;;;8.80;;
46230;SDS011;31949;51.404;-0.038;2023-05-07T05:42:39;10.13;;;7.30;;
46230;SDS011;31949;51.404;-0.038;2023-05-07T05:45:08;10.30;;;7.93;;
46230;SDS011;31949;51.404;-0.038;2023-05-07T05:47:36;10.00;;;7.70;;
46230;SDS011;31949;51.404;-0.038;2023-05-07T05:50:04;9.80;;;7.97;;
46230;SDS011;31949;51.404;-0.038;2023-05-07T05:52:32;8.65;;;6.65;;
46230;SDS011;31949;51.404;-0.038;2023-05-07T05:55:00;8.02;;;5.93;;
46230;SDS011;31949;51.404;-0.038;2023-05-07T05:57:27;7.60;;;6.45;;
46230;SDS011;31949;51.404;-0.038;2023-05-07T05:59:55;8.70;;;6.22;;
46230;SDS011;31949;51.404;-0.038;2023-05-07T06:02:23;9.38;;;7.00;;
46230;SDS011;31949;51.404;-0.038;2023-05-07T06:04:51;8.48;;;6.72;;
46230;SDS011;31949;51.404;-0.038;2023-05-07T06:07:21;11.13;;;7.40;;
46230;SDS011;31949;51.404;-0.038;2023-05-07T06:09:48;8.75;;;6.00;;
46230;SDS011;31949;51.404;-0.038;2023-05-07T06:12:16;7.38;;;5.63;;
46230;SDS011;31949;51.404;-0.038;2023-05-07T06:14:43;7.45;;;5.80;;
46230;SDS011;31949;51.404;-0.038;2023-05-07T06:17:11;7.55;;;5.97;;
46230;SDS011;31949;51.404;-0.038;2023-05-07T06:19:38;8.05;;;6.40;;
46230;SDS011;31949;51.404;-0.038;2023-05-07T06:22:06;7.72;;;6.03;;
46230;SDS011;31949;51.404;-0.038;2023-05-07T06:24:34;8.93;;;6.25;;
46230;SDS011;31949;51.404;-0.038;2023-05-07T06:27:03;7.70;;;5.25;;
46230;SDS011;31949;51.404;-0.038;2023-05-07T06:29:31;9.15;;;6.45;;
46230;SDS011;31949;51.404;-0.038;2023-05-07T06:32:06;7.93;;;5.97;;
46230;SDS011;31949;51.404;-0.038;2023-05-07T06:34:34;8.02;;;5.53;;
46230;SDS011;31949;51.404;-0.038;2023-05-07T06:37:02;7.55;;;5.63;;
46230;SDS011;31949;51.404;-0.038;2023-05-07T06:39:55;9.13;;;5.60;;
46230;SDS011;31949;51.404;-0.038;2023-05-07T06:42:26;9.13;;;6.30;;
46230;SDS011;31949;51.404;-0.038;2023-05-07T06:44:58;8.38;;;5.65;;
46230;SDS011;31949;51.404;-0.038;2023-05-07T06:47:27;11.98;;;7.13;;
46230;SDS011;31949;51.404;-0.038;2023-05-07T06:49:55;8.90;;;7.22;;
46230;SDS011;31949;51.404;-0.038;2023-05-07T06:52:25;9.13;;;5.50;;
46230;SDS011;31949;51.404;-0.038;2023-05-07T06:54:53;7.00;;;5.22;;
46230;SDS011;31949;51.404;-0.038;2023-05-07T06:57:22;9.40;;;6.90;;
46230;SDS011;31949;51.404;-0.038;2023-05-07T06:59:49;9.65;;;6.65;;
46230;SDS011;31949;51.404;-0.038;2023-05-07T07:02:17;10.50;;;6.25;;
46230;SDS011;31949;51.404;-0.038;2023-05-07T07:04:45;7.93;;;6.18;;
46230;SDS011;31949;51.404;-0.038;2023-05-07T07:07:13;6.25;;;5.07;;
46230;SDS011;31949;51.404;-0.038;2023-05-07T07:09:43;10.15;;;6.85;;
46230;SDS011;31949;51.404;-0.038;2023-05-07T07:12:13;9.43;;;6.68;;
46230;SDS011;31949;51.404;-0.038;2023-05-07T07:14:41;8.80;;;6.57;;
46230;SDS011;31949;51.404;-0.038;2023-05-07T07:17:09;8.60;;;6.07;;
46230;SDS011;31949;51.404;-0.038;2023-05-07T07:19:36;8.73;;;5.70;;
46230;SDS011;31949;51.404;-0.038;2023-05-07T07:22:04;7.07;;;5.10;;
46230;SDS011;31949;51.404;-0.038;2023-05-07T07:24:32;6.70;;;5.07;;
46230;SDS011;31949;51.404;-0.038;2023-05-07T07:27:02;5.72;;;4.82;;
46230;SDS011;31949;51.404;-0.038;2023-05-07T07:29:32;6.82;;;5.28;;
46230;SDS011;31949;51.404;-0.038;2023-05-07T07:32:00;7.78;;;6.18;;
46230;SDS011;31949;51.404;-0.038;2023-05-07T07:34:28;8.65;;;6.72;;
46230;SDS011;31949;51.404;-0.038;2023-05-07T07:36:55;7.65;;;6.43;;
46230;SDS011;31949;51.404;-0.038;2023-05-07T07:39:24;8.32;;;7.43;;
46230;SDS011;31949;51.404;-0.038;2023-05-07T07:41:54;7.03;;;6.28;;
46230;SDS011;31949;51.404;-0.038;2023-05-07T07:44:21;9.93;;;7.80;;
46230;SDS011;31949;51.404;-0.038;2023-05-07T07:46:54;10.60;;;8.13;;
46230;SDS011;31949;51.404;-0.038;2023-05-07T07:49:23;9.77;;;7.30;;
46230;SDS011;31949;51.404;-0.038;2023-05-07T07:51:50;7.93;;;6.53;;
46230;SDS011;31949;51.404;-0.038;2023-05-07T07:54:18;8.18;;;6.75;;
46230;SDS011;31949;51.404;-0.038;2023-05-07T07:56:45;10.52;;;7.45;;
46230;SDS011;31949;51.404;-0.038;2023-05-07T07:59:13;9.82;;;7.20;;
46230;SDS011;31949;51.404;-0.038;2023-05-07T08:01:44;11.15;;;8.70;;
46230;SDS011;31949;51.404;-0.038;2023-05-07T08:04:12;9.10;;;8.07;;
46230;SDS011;31949;51.404;-0.038;2023-05-07T08:06:41;11.23;;;8.77;;
46230;SDS011;31949;51.404;-0.038;2023-05-07T08:09:09;12.50;;;10.25;;
46230;SDS011;31949;51.404;-0.038;2023-05-07T08:11:39;12.30;;;8.98;;
46230;SDS011;31949;51.404;-0.038;2023-05-07T08:14:06;12.13;;;9.65;;
46230;SDS011;31949;51.404;-0.038;2023-05-07T08:16:34;12.82;;;10.32;;
46230;SDS011;31949;51.404;-0.038;2023-05-07T08:19:01;10.30;;;9.00;;
46230;SDS011;31949;51.404;-0.038;2023-05-07T08:21:29;11.45;;;10.07;;
46230;SDS011;31949;51.404;-0.038;2023-05-07T08:24:00;11.10;;;9.50;;
46230;SDS011;31949;51.404;-0.038;2023-05-07T08:26:28;12.02;;;8.90;;
46230;SDS011;31949;51.404;-0.038;2023-05-07T08:28:55;10.13;;;9.02;;
46230;SDS011;31949;51.404;-0.038;2023-05-07T08:31:23;12.05;;;8.75;;
46230;SDS011;31949;51.404;-0.038;2023-05-07T08:33:50;11.65;;;8.98;;
46230;SDS011;31949;51.404;-0.038;2023-05-07T08:36:17;10.23;;;8.50;;
46230;SDS011;31949;51.404;-0.038;2023-05-07T08:38:46;7.93;;;6.40;;
46230;SDS011;31949;51.404;-0.038;2023-05-07T08:41:13;8.93;;;7.38;;
46230;SDS011;31949;51.404;-0.038;2023-05-07T08:43:44;8.35;;;7.15;;
46230;SDS011;31949;51.404;-0.038;2023-05-07T08:46:17;9.77;;;7.50;;
46230;SDS011;31949;51.404;-0.038;2023-05-07T08:48:50;7.43;;;6.47;;
46230;SDS011;31949;51.404;-0.038;2023-05-07T08:51:19;8.00;;;6.25;;
46230;SDS011;31949;51.404;-0.038;2023-05-07T08:53:48;7.30;;;5.63;;
46230;SDS011;31949;51.404;-0.038;2023-05-07T08:56:22;5.38;;;4.82;;
46230;SDS011;31949;51.404;-0.038;2023-05-07T08:58:51;7.22;;;6.25;;
46230;SDS011;31949;51.404;-0.038;2023-05-07T09:01:23;5.80;;;5.22;;
46230;SDS011;31949;51.404;-0.038;2023-05-07T09:03:52;8.30;;;6.45;;
46230;SDS011;31949;51.404;-0.038;2023-05-07T09:06:21;7.93;;;6.55;;
46230;SDS011;31949;51.404;-0.038;2023-05-07T09:08:53;6.07;;;5.47;;
46230;SDS011;31949;51.404;-0.038;2023-05-07T09:11:24;6.40;;;5.80;;
46230;SDS011;31949;51.404;-0.038;2023-05-07T09:13:54;5.63;;;5.07;;
46230;SDS011;31949;51.404;-0.038;2023-05-07T09:16:23;5.63;;;5.03;;
46230;SDS011;31949;51.404;-0.038;2023-05-07T09:18:52;4.47;;;4.07;;
46230;SDS011;31949;51.404;-0.038;2023-05-07T09:21:22;8.05;;;7.20;;
46230;SDS011;31949;51.404;-0.038;2023-05-07T09:23:52;5.72;;;5.22;;
46230;SDS011;31949;51.404;-0.038;2023-05-07T09:26:28;5.03;;;4.57;;
46230;SDS011;31949;51.404;-0.038;2023-05-07T09:28:55;5.15;;;4.35;;
46230;SDS011;31949;51.404;-0.038;2023-05-07T09:31:22;4.55;;;4.15;;
46230;SDS011;31949;51.404;-0.038;2023-05-07T09:33:52;3.75;;;3.35;;
46230;SDS011;31949;51.404;-0.038;2023-05-07T09:36:26;4.38;;;3.38;;
46230;SDS011;31949;51.404;-0.038;2023-05-07T09:38:53;3.92;;;3.53;;
46230;SDS011;31949;51.404;-0.038;2023-05-07T09:41:21;3.88;;;3.58;;
46230;SDS011;31949;51.404;-0.038;2023-05-07T09:44:18;4.85;;;3.78;;
46230;SDS011;31949;51.404;-0.038;2023-05-07T09:46:51;6.38;;;4.40;;
46230;SDS011;31949;51.404;-0.038;2023-05-07T09:49:28;5.43;;;4.55;;
46230;SDS011;31949;51.404;-0.038;2023-05-07T09:52:03;4.18;;;3.33;;
46230;SDS011;31949;51.404;-0.038;2023-05-07T09:54:39;7.13;;;5.15;;
46230;SDS011;31949;51.404;-0.038;2023-05-07T09:57:10;4.95;;;4.20;;
46230;SDS011;31949;51.404;-0.038;2023-05-07T09:59:42;4.20;;;3.80;;
46230;SDS011;31949;51.404;-0.038;2023-05-07T10:02:13;4.32;;;3.67;;
46230;SDS011;31949;51.404;-0.038;2023-05-07T10:04:47;3.95;;;3.55;;
46230;SDS011;31949;51.404;-0.038;2023-05-07T10:07:19;3.50;;;3.20;;
46230;SDS011;31949;51.404;-0.038;2023-05-07T10:09:50;4.07;;;3.67;;
46230;SDS011;31949;51.404;-0.038;2023-05-07T10:12:27;4.55;;;3.72;;
46230;SDS011;31949;51.404;-0.038;2023-05-07T10:14:56;4.03;;;3.63;;
46230;SDS011;31949;51.404;-0.038;2023-05-07T10:17:24;4.28;;;3.92;;
46230;SDS011;31949;51.404;-0.038;2023-05-07T10:19:52;4.70;;;3.75;;
46230;SDS011;31949;51.404;-0.038;2023-05-07T10:22:21;5.22;;;4.72;;
46230;SDS011;31949;51.404;-0.038;2023-05-07T10:24:51;4.20;;;3.80;;
46230;SDS011;31949;51.404;-0.038;2023-05-07T10:27:21;5.30;;;4.07;;
46230;SDS011;31949;51.404;-0.038;2023-05-07T10:30:07;4.20;;;3.80;;
46230;SDS011;31949;51.404;-0.038;2023-05-07T10:33:08;5.85;;;5.13;;
46230;SDS011;31949;51.404;-0.038;2023-05-07T10:35:43;5.15;;;4.05;;
46230;SDS011;31949;51.404;-0.038;2023-05-07T10:38:14;5.18;;;4.28;;
46230;SDS011;31949;51.404;-0.038;2023-05-07T10:40:43;3.55;;;3.17;;
46230;SDS011;31949;51.404;-0.038;2023-05-07T10:43:14;4.20;;;3.80;;
46230;SDS011;31949;51.404;-0.038;2023-05-07T10:46:08;3.97;;;3.58;;
46230;SDS011;31949;51.404;-0.038;2023-05-07T10:52:11;5.03;;;4.50;;
46230;SDS011;31949;51.404;-0.038;2023-05-07T10:57:55;5.30;;;4.22;;
46230;SDS011;31949;51.404;-0.038;2023-05-07T11:03:06;5.40;;;4.90;;
46230;SDS011;31949;51.404;-0.038;2023-05-07T11:05:44;5.03;;;4.30;;
46230;SDS011;31949;51.404;-0.038;2023-05-07T11:08:18;4.68;;;4.22;;
46230;SDS011;31949;51.404;-0.038;2023-05-07T11:10:56;6.22;;;4.40;;
46230;SDS011;31949;51.404;-0.038;2023-05-07T11:13:51;4.38;;;3.63;;
46230;SDS011;31949;51.404;-0.038;2023-05-07T11:16:34;3.25;;;2.70;;
46230;SDS011;31949;51.404;-0.038;2023-05-07T11:19:15;4.28;;;3.60;;
46230;SDS011;31949;51.404;-0.038;2023-05-07T11:21:47;4.88;;;4.40;;
46230;SDS011;31949;51.404;-0.038;2023-05-07T11:24:24;4.97;;;4.55;;
46230;SDS011;31949;51.404;-0.038;2023-05-07T11:26:56;4.00;;;3.70;;
46230;SDS011;31949;51.404;-0.038;2023-05-07T11:29:26;4.60;;;4.20;;
46230;SDS011;31949;51.404;-0.038;2023-05-07T11:32:02;4.10;;;3.70;;
46230;SDS011;31949;51.404;-0.038;2023-05-07T11:34:36;4.40;;;4.00;;
46230;SDS011;31949;51.404;-0.038;2023-05-07T11:37:04;5.00;;;4.57;;
46230;SDS011;31949;51.404;-0.038;2023-05-07T11:39:44;4.95;;;4.45;;
46230;SDS011;31949;51.404;-0.038;2023-05-07T11:42:30;5.35;;;4.82;;
46230;SDS011;31949;51.404;-0.038;2023-05-07T11:45:02;5.22;;;4.82;;
46230;SDS011;31949;51.404;-0.038;2023-05-07T11:47:32;6.05;;;4.93;;
46230;SDS011;31949;51.404;-0.038;2023-05-07T11:50:04;6.72;;;6.03;;
46230;SDS011;31949;51.404;-0.038;2023-05-07T11:52:34;5.18;;;4.78;;
46230;SDS011;31949;51.404;-0.038;2023-05-07T11:55:02;5.57;;;5.10;;
46230;SDS011;31949;51.404;-0.038;2023-05-07T11:57:32;5.93;;;5.43;;
46230;SDS011;31949;51.404;-0.038;2023-05-07T12:00:00;5.45;;;4.95;;
46230;SDS011;31949;51.404;-0.038;2023-05-07T12:02:42;5.37;;;4.87;;
46230;SDS011;31949;51.404;-0.038;2023-05-07T12:05:09;6.57;;;5.97;;
46230;SDS011;31949;51.404;-0.038;2023-05-07T12:07:37;5.20;;;4.70;;
46230;SDS011;31949;51.404;-0.038;2023-05-07T12:10:04;5.38;;;4.88;;
46230;SDS011;31949;51.404;-0.038;2023-05-07T12:12:39;4.95;;;4.55;;
46230;SDS011;31949;51.404;-0.038;2023-05-07T12:15:08;4.15;;;3.75;;
46230;SDS011;31949;51.404;-0.038;2023-05-07T12:17:37;4.32;;;3.92;;
46230;SDS011;31949;51.404;-0.038;2023-05-07T12:20:05;5.38;;;4.90;;
46230;SDS011;31949;51.404;-0.038;2023-05-07T12:22:33;5.10;;;4.70;;
46230;SDS011;31949;51.404;-0.038;2023-05-07T12:25:01;5.70;;;5.20;;
46230;SDS011;31949;51.404;-0.038;2023-05-07T12:27:30;5.18;;;4.70;;
46230;SDS011;31949;51.404;-0.038;2023-05-07T12:29:57;6.72;;;5.55;;
46230;SDS011;31949;51.404;-0.038;2023-05-07T12:32:25;5.40;;;4.68;;
46230;SDS011;31949;51.404;-0.038;2023-05-07T12:34:53;5.60;;;5.15;;
46230;SDS011;31949;51.404;-0.038;2023-05-07T12:37:23;6.85;;;6.25;;
46230;SDS011;31949;51.404;-0.038;2023-05-07T12:40:03;5.93;;;5.43;;
46230;SDS011;31949;51.404;-0.038;2023-05-07T12:42:35;4.78;;;4.38;;
46230;SDS011;31949;51.404;-0.038;2023-05-07T12:45:11;6.60;;;6.00;;
46230;SDS011;31949;51.404;-0.038;2023-05-07T12:47:45;5.43;;;4.85;;
46230;SDS011;31949;51.404;-0.038;2023-05-07T12:50:14;4.95;;;4.45;;
46230;SDS011;31949;51.404;-0.038;2023-05-07T12:52:43;6.38;;;5.70;;
46230;SDS011;31949;51.404;-0.038;2023-05-07T12:55:12;5.10;;;4.57;;
46230;SDS011;31949;51.404;-0.038;2023-05-07T12:57:42;4.53;;;3.97;;
46230;SDS011;31949;51.404;-0.038;2023-05-07T13:00:14;4.18;;;3.78;;
46230;SDS011;31949;51.404;-0.038;2023-05-07T13:02:42;4.57;;;4.03;;
46230;SDS011;31949;51.404;-0.038;2023-05-07T13:05:13;5.25;;;4.32;;
46230;SDS011;31949;51.404;-0.038;2023-05-07T13:07:40;3.97;;;3.58;;
46230;SDS011;31949;51.404;-0.038;2023-05-07T13:10:21;5.00;;;4.43;;
46230;SDS011;31949;51.404;-0.038;2023-05-07T13:12:49;4.45;;;4.05;;
46230;SDS011;31949;51.404;-0.038;2023-05-07T13:15:17;3.63;;;3.33;;
46230;SDS011;31949;51.404;-0.038;2023-05-07T13:17:45;5.03;;;4.68;;
46230;SDS011;31949;51.404;-0.038;2023-05-07T13:20:13;5.88;;;5.30;;
46230;SDS011;31949;51.404;-0.038;2023-05-07T13:22:40;5.45;;;4.28;;
46230;SDS011;31949;51.404;-0.038;2023-05-07T13:25:07;5.25;;;4.25;;
46230;SDS011;31949;51.404;-0.038;2023-05-07T13:27:35;4.53;;;3.92;;
46230;SDS011;31949;51.404;-0.038;2023-05-07T13:30:04;4.00;;;3.70;;
46230;SDS011;31949;51.404;-0.038;2023-05-07T13:32:32;4.50;;;3.55;;
46230;SDS011;31949;51.404;-0.038;2023-05-07T13:34:59;3.75;;;3.40;;
46230;SDS011;31949;51.404;-0.038;2023-05-07T13:37:26;3.72;;;3.42;;
46230;SDS011;31949;51.404;-0.038;2023-05-07T13:39:54;4.35;;;3.67;;
46230;SDS011;31949;51.404;-0.038;2023-05-07T13:42:21;3.65;;;3.35;;
46230;SDS011;31949;51.404;-0.038;2023-05-07T13:44:48;3.60;;;3.30;;
46230;SDS011;31949;51.404;-0.038;2023-05-07T13:47:15;3.20;;;3.00;;
46230;SDS011;31949;51.404;-0.038;2023-05-07T13:49:43;3.95;;;3.30;;
46230;SDS011;31949;51.404;-0.038;2023-05-07T13:52:10;3.85;;;3.53;;
46230;SDS011;31949;51.404;-0.038;2023-05-07T13:54:37;4.88;;;3.65;;
46230;SDS011;31949;51.404;-0.038;2023-05-07T13:57:04;4.20;;;3.40;;
46230;SDS011;31949;51.404;-0.038;2023-05-07T13:59:32;2.70;;;2.50;;
46230;SDS011;31949;51.404;-0.038;2023-05-07T14:01:59;2.63;;;2.42;;
46230;SDS011;31949;51.404;-0.038;2023-05-07T14:04:26;2.85;;;2.65;;
46230;SDS011;31949;51.404;-0.038;2023-05-07T14:06:53;2.67;;;2.45;;
46230;SDS011;31949;51.404;-0.038;2023-05-07T14:09:21;2.55;;;2.33;;
46230;SDS011;31949;51.404;-0.038;2023-05-07T14:11:48;2.88;;;2.28;;
46230;SDS011;31949;51.404;-0.038;2023-05-07T14:14:18;2.80;;;2.25;;
46230;SDS011;31949;51.404;-0.038;2023-05-07T14:16:45;2.22;;;2.00;;
46230;SDS011;31949;51.404;-0.038;2023-05-07T14:19:16;2.85;;;2.50;;
46230;SDS011;31949;51.404;-0.038;2023-05-07T14:21:43;3.42;;;2.88;;
46230;SDS011;31949;51.404;-0.038;2023-05-07T14:24:10;2.80;;;2.60;;
46230;SDS011;31949;51.404;-0.038;2023-05-07T14:26:37;2.70;;;2.50;;
46230;SDS011;31949;51.404;-0.038;2023-05-07T14:29:04;2.88;;;2.00;;
46230;SDS011;31949;51.404;-0.038;2023-05-07T14:31:32;2.78;;;2.58;;
46230;SDS011;31949;51.404;-0.038;2023-05-07T14:34:00;4.68;;;2.80;;
46230;SDS011;31949;51.404;-0.038;2023-05-07T14:36:27;2.22;;;2.03;;
46230;SDS011;31949;51.404;-0.038;2023-05-07T14:38:54;3.92;;;3.13;;
46230;SDS011;31949;51.404;-0.038;2023-05-07T14:41:22;3.30;;;2.92;;
46230;SDS011;31949;51.404;-0.038;2023-05-07T14:43:49;3.22;;;2.92;;
46230;SDS011;31949;51.404;-0.038;2023-05-07T14:46:19;2.92;;;2.22;;
46230;SDS011;31949;51.404;-0.038;2023-05-07T14:48:47;2.60;;;2.40;;
46230;SDS011;31949;51.404;-0.038;2023-05-07T14:51:14;2.05;;;1.73;;
46230;SDS011;31949;51.404;-0.038;2023-05-07T14:53:41;2.13;;;2.03;;
46230;SDS011;31949;51.404;-0.038;2023-05-07T14:56:09;2.35;;;2.15;;